sensor_id;sensor_type;location;lat;lon;timestamp;temperature;humidity
56234;DHT22;42141;53.240;6.580;2023-03-01T00:01:02;-0.60;99.90
56234;DHT22;42141;53.240;6.580;2023-03-01T00:03:28;1.10;99.90
56234;DHT22;42141;53.240;6.580;2023-03-01T00:05:54;-0.60;99.90
56234;DHT22;42141;53.240;6.580;2023-03-01T00:08:20;-0.60;99.90
56234;DHT22;42141;53.240;6.580;2023-03-01T00:10:45;0.90;99.90
56234;DHT22;42141;53.240;6.580;2023-03-01T00:13:11;-0.70;99.90
56234;DHT22;42141;53.240;6.580;2023-03-01T00:15:40;-0.70;99.90
56234;DHT22;42141;53.240;6.580;2023-03-01T00:18:07;-0.60;99.90
56234;DHT22;42141;53.240;6.580;2023-03-01T00:20:34;-0.60;99.90
56234;DHT22;42141;53.240;6.580;2023-03-01T00:23:00;-0.60;99.90
56234;DHT22;42141;53.240;6.580;2023-03-01T00:25:25;-0.60;99.90
56234;DHT22;42141;53.240;6.580;2023-03-01T00:27:51;0.80;99.90
56234;DHT22;42141;53.240;6.580;2023-03-01T00:30:17;-0.30;99.90
56234;DHT22;42141;53.240;6.580;2023-03-01T00:32:43;-0.70;99.90
56234;DHT22;42141;53.240;6.580;2023-03-01T00:35:09;-0.70;99.90
56234;DHT22;42141;53.240;6.580;2023-03-01T00:37:35;-0.80;99.90
56234;DHT22;42141;53.240;6.580;2023-03-01T00:40:00;-0.80;99.90
56234;DHT22;42141;53.240;6.580;2023-03-01T00:42:26;-0.80;99.90
56234;DHT22;42141;53.240;6.580;2023-03-01T00:44:52;-1.10;99.90
56234;DHT22;42141;53.240;6.580;2023-03-01T00:47:18;-0.90;99.90
56234;DHT22;42141;53.240;6.580;2023-03-01T00:49:43;-0.80;99.90
56234;DHT22;42141;53.240;6.580;2023-03-01T00:52:09;-0.90;99.90
56234;DHT22;42141;53.240;6.580;2023-03-01T00:54:35;0.20;99.90
56234;DHT22;42141;53.240;6.580;2023-03-01T00:57:00;-0.90;99.90
56234;DHT22;42141;53.240;6.580;2023-03-01T00:59:26;-0.90;99.90
56234;DHT22;42141;53.240;6.580;2023-03-01T01:01:52;-0.90;99.90
56234;DHT22;42141;53.240;6.580;2023-03-01T01:04:18;-0.90;99.90
56234;DHT22;42141;53.240;6.580;2023-03-01T01:06:45;-0.90;99.90
56234;DHT22;42141;53.240;6.580;2023-03-01T01:09:16;0.60;99.90
56234;DHT22;42141;53.240;6.580;2023-03-01T01:11:46;0.50;99.90
56234;DHT22;42141;53.240;6.580;2023-03-01T01:14:12;0.40;99.90
56234;DHT22;42141;53.240;6.580;2023-03-01T01:16:38;-1.00;99.90
56234;DHT22;42141;53.240;6.580;2023-03-01T01:19:04;-1.00;99.90
56234;DHT22;42141;53.240;6.580;2023-03-01T01:21:30;-1.00;99.90
56234;DHT22;42141;53.240;6.580;2023-03-01T01:23:56;-1.70;99.90
56234;DHT22;42141;53.240;6.580;2023-03-01T01:26:25;-1.00;99.90
56234;DHT22;42141;53.240;6.580;2023-03-01T01:28:55;-1.00;99.90
56234;DHT22;42141;53.240;6.580;2023-03-01T01:31:21;-1.00;99.90
56234;DHT22;42141;53.240;6.580;2023-03-01T01:33:49;-1.00;99.90
56234;DHT22;42141;53.240;6.580;2023-03-01T01:36:16;0.40;99.90
56234;DHT22;42141;53.240;6.580;2023-03-01T01:38:42;-1.00;99.90
56234;DHT22;42141;53.240;6.580;2023-03-01T01:41:11;0.00;99.90
56234;DHT22;42141;53.240;6.580;2023-03-01T01:43:41;-1.10;99.90
56234;DHT22;42141;53.240;6.580;2023-03-01T01:48:59;-1.10;99.90
56234;DHT22;42141;53.240;6.580;2023-03-01T01:51:29;-1.10;99.90
56234;DHT22;42141;53.240;6.580;2023-03-01T01:54:15;-1.10;99.90
56234;DHT22;42141;53.240;6.580;2023-03-01T01:56:46;-1.20;99.90
56234;DHT22;42141;53.240;6.580;2023-03-01T01:59:14;-1.20;99.90
56234;DHT22;42141;53.240;6.580;2023-03-01T02:01:40;-1.20;99.90
56234;DHT22;42141;53.240;6.580;2023-03-01T02:04:06;-1.30;99.90
56234;DHT22;42141;53.240;6.580;2023-03-01T02:06:41;-1.30;99.90
56234;DHT22;42141;53.240;6.580;2023-03-01T02:09:13;-1.30;99.90
56234;DHT22;42141;53.240;6.580;2023-03-01T02:11:40;-1.30;99.90
56234;DHT22;42141;53.240;6.580;2023-03-01T02:14:06;-1.40;99.90
56234;DHT22;42141;53.240;6.580;2023-03-01T02:16:32;-1.40;99.90
56234;DHT22;42141;53.240;6.580;2023-03-01T02:18:58;-1.40;99.90
56234;DHT22;42141;53.240;6.580;2023-03-01T02:23:54;-1.40;99.90
56234;DHT22;42141;53.240;6.580;2023-03-01T02:26:29;-1.40;99.90
56234;DHT22;42141;53.240;6.580;2023-03-01T02:28:57;-1.40;99.90
56234;DHT22;42141;53.240;6.580;2023-03-01T02:31:22;-1.50;99.90
56234;DHT22;42141;53.240;6.580;2023-03-01T02:34:09;-1.50;99.90
56234;DHT22;42141;53.240;6.580;2023-03-01T02:36:45;-1.50;99.90
56234;DHT22;42141;53.240;6.580;2023-03-01T02:39:20;0.10;99.90
56234;DHT22;42141;53.240;6.580;2023-03-01T02:41:53;-1.60;99.90
56234;DHT22;42141;53.240;6.580;2023-03-01T02:44:20;-1.60;99.90
56234;DHT22;42141;53.240;6.580;2023-03-01T02:46:51;-0.40;99.90
56234;DHT22;42141;53.240;6.580;2023-03-01T02:49:38;-1.70;99.90
56234;DHT22;42141;53.240;6.580;2023-03-01T02:52:30;-1.70;99.90
56234;DHT22;42141;53.240;6.580;2023-03-01T02:55:06;-1.70;99.90
56234;DHT22;42141;53.240;6.580;2023-03-01T02:57:34;-1.80;99.90
56234;DHT22;42141;53.240;6.580;2023-03-01T03:00:08;-1.80;99.90
56234;DHT22;42141;53.240;6.580;2023-03-01T03:02:35;-1.90;99.90
56234;DHT22;42141;53.240;6.580;2023-03-01T03:05:12;-0.60;99.90
56234;DHT22;42141;53.240;6.580;2023-03-01T03:07:41;-1.90;99.90
56234;DHT22;42141;53.240;6.580;2023-03-01T03:10:13;-1.90;99.90
56234;DHT22;42141;53.240;6.580;2023-03-01T03:12:40;-1.90;99.90
56234;DHT22;42141;53.240;6.580;2023-03-01T03:15:08;-2.00;99.90
56234;DHT22;42141;53.240;6.580;2023-03-01T03:17:40;-2.00;99.90
56234;DHT22;42141;53.240;6.580;2023-03-01T03:20:08;-2.00;99.90
56234;DHT22;42141;53.240;6.580;2023-03-01T03:22:40;-2.00;99.90
56234;DHT22;42141;53.240;6.580;2023-03-01T03:25:07;-2.00;99.90
56234;DHT22;42141;53.240;6.580;2023-03-01T03:27:37;-2.00;99.90
56234;DHT22;42141;53.240;6.580;2023-03-01T03:30:05;-2.00;99.90
56234;DHT22;42141;53.240;6.580;2023-03-01T03:32:39;-2.10;99.90
56234;DHT22;42141;53.240;6.580;2023-03-01T03:35:07;-2.10;99.90
56234;DHT22;42141;53.240;6.580;2023-03-01T03:37:40;-2.10;99.90
56234;DHT22;42141;53.240;6.580;2023-03-01T03:40:25;-2.10;99.90
56234;DHT22;42141;53.240;6.580;2023-03-01T03:42:51;-1.80;99.90
56234;DHT22;42141;53.240;6.580;2023-03-01T03:45:17;-3.50;99.90
56234;DHT22;42141;53.240;6.580;2023-03-01T03:47:43;-2.80;99.90
56234;DHT22;42141;53.240;6.580;2023-03-01T03:50:10;-2.20;99.90
56234;DHT22;42141;53.240;6.580;2023-03-01T03:52:36;-2.20;99.90
56234;DHT22;42141;53.240;6.580;2023-03-01T03:55:02;-2.20;99.90
56234;DHT22;42141;53.240;6.580;2023-03-01T03:57:28;-2.20;99.90
56234;DHT22;42141;53.240;6.580;2023-03-01T03:59:54;-2.20;99.90
56234;DHT22;42141;53.240;6.580;2023-03-01T04:02:20;-2.30;99.90
56234;DHT22;42141;53.240;6.580;2023-03-01T04:04:49;-0.60;99.90
56234;DHT22;42141;53.240;6.580;2023-03-01T04:07:16;-2.30;99.90
56234;DHT22;42141;53.240;6.580;2023-03-01T04:09:43;-2.00;99.90
56234;DHT22;42141;53.240;6.580;2023-03-01T04:12:09;-2.20;99.90
56234;DHT22;42141;53.240;6.580;2023-03-01T04:14:36;-2.20;99.90
56234;DHT22;42141;53.240;6.580;2023-03-01T04:17:02;-2.30;99.90
56234;DHT22;42141;53.240;6.580;2023-03-01T04:19:31;-2.30;99.90
56234;DHT22;42141;53.240;6.580;2023-03-01T04:22:04;-2.30;99.90
56234;DHT22;42141;53.240;6.580;2023-03-01T04:24:35;-2.40;99.90
56234;DHT22;42141;53.240;6.580;2023-03-01T04:27:02;-2.40;99.90
56234;DHT22;42141;53.240;6.580;2023-03-01T04:29:28;-2.40;99.90
56234;DHT22;42141;53.240;6.580;2023-03-01T04:31:54;-2.40;99.90
56234;DHT22;42141;53.240;6.580;2023-03-01T04:34:20;-1.70;99.90
56234;DHT22;42141;53.240;6.580;2023-03-01T04:36:46;-2.40;99.90
56234;DHT22;42141;53.240;6.580;2023-03-01T04:39:11;-2.50;99.90
56234;DHT22;42141;53.240;6.580;2023-03-01T04:41:38;-2.40;99.90
56234;DHT22;42141;53.240;6.580;2023-03-01T04:44:05;-2.40;99.90
56234;DHT22;42141;53.240;6.580;2023-03-01T04:46:31;-2.40;99.90
56234;DHT22;42141;53.240;6.580;2023-03-01T04:48:57;-2.40;99.90
56234;DHT22;42141;53.240;6.580;2023-03-01T04:51:23;-2.40;99.90
56234;DHT22;42141;53.240;6.580;2023-03-01T04:53:48;-2.40;99.90
56234;DHT22;42141;53.240;6.580;2023-03-01T04:56:14;-1.40;99.90
56234;DHT22;42141;53.240;6.580;2023-03-01T04:58:41;-2.40;99.90
56234;DHT22;42141;53.240;6.580;2023-03-01T05:01:15;-2.50;99.90
56234;DHT22;42141;53.240;6.580;2023-03-01T05:03:46;-2.50;99.90
56234;DHT22;42141;53.240;6.580;2023-03-01T05:06:12;-2.50;99.90
56234;DHT22;42141;53.240;6.580;2023-03-01T05:08:41;-2.00;99.90
56234;DHT22;42141;53.240;6.580;2023-03-01T05:11:08;-2.60;99.90
56234;DHT22;42141;53.240;6.580;2023-03-01T05:13:35;-2.30;99.90
56234;DHT22;42141;53.240;6.580;2023-03-01T05:16:02;-1.20;99.90
56234;DHT22;42141;53.240;6.580;2023-03-01T05:18:30;-2.70;99.90
56234;DHT22;42141;53.240;6.580;2023-03-01T05:21:03;-2.70;99.90
56234;DHT22;42141;53.240;6.580;2023-03-01T05:23:30;-2.70;99.90
56234;DHT22;42141;53.240;6.580;2023-03-01T05:26:03;-2.70;99.90
56234;DHT22;42141;53.240;6.580;2023-03-01T05:28:29;-2.80;99.90
56234;DHT22;42141;53.240;6.580;2023-03-01T05:30:56;-2.30;99.90
56234;DHT22;42141;53.240;6.580;2023-03-01T05:33:22;-2.80;99.90
56234;DHT22;42141;53.240;6.580;2023-03-01T05:35:49;-2.90;99.90
56234;DHT22;42141;53.240;6.580;2023-03-01T05:38:15;-2.80;99.90
56234;DHT22;42141;53.240;6.580;2023-03-01T05:40:43;-2.80;99.90
56234;DHT22;42141;53.240;6.580;2023-03-01T05:43:10;-2.90;99.90
56234;DHT22;42141;53.240;6.580;2023-03-01T05:45:37;-2.90;99.90
56234;DHT22;42141;53.240;6.580;2023-03-01T05:48:04;-2.90;99.90
56234;DHT22;42141;53.240;6.580;2023-03-01T05:50:33;-2.90;99.90
56234;DHT22;42141;53.240;6.580;2023-03-01T05:53:04;-2.90;99.90
56234;DHT22;42141;53.240;6.580;2023-03-01T05:55:32;-2.90;99.90
56234;DHT22;42141;53.240;6.580;2023-03-01T05:58:00;-1.20;99.90
56234;DHT22;42141;53.240;6.580;2023-03-01T06:00:27;-2.60;99.90
56234;DHT22;42141;53.240;6.580;2023-03-01T06:02:57;-2.90;99.90
56234;DHT22;42141;53.240;6.580;2023-03-01T06:05:24;-2.90;99.90
56234;DHT22;42141;53.240;6.580;2023-03-01T06:07:50;-2.90;99.90
56234;DHT22;42141;53.240;6.580;2023-03-01T06:10:19;-2.90;99.90
56234;DHT22;42141;53.240;6.580;2023-03-01T06:12:45;-2.90;99.90
56234;DHT22;42141;53.240;6.580;2023-03-01T06:15:12;-2.90;99.90
56234;DHT22;42141;53.240;6.580;2023-03-01T06:17:41;-3.00;99.90
56234;DHT22;42141;53.240;6.580;2023-03-01T06:20:22;-2.90;99.90
56234;DHT22;42141;53.240;6.580;2023-03-01T06:22:48;-3.00;99.90
56234;DHT22;42141;53.240;6.580;2023-03-01T06:25:17;-2.90;99.90
56234;DHT22;42141;53.240;6.580;2023-03-01T06:27:44;-2.10;99.90
56234;DHT22;42141;53.240;6.580;2023-03-01T06:30:12;-3.00;99.90
56234;DHT22;42141;53.240;6.580;2023-03-01T06:32:40;-3.00;99.90
56234;DHT22;42141;53.240;6.580;2023-03-01T06:35:13;-3.00;99.90
56234;DHT22;42141;53.240;6.580;2023-03-01T06:37:41;-3.00;99.90
56234;DHT22;42141;53.240;6.580;2023-03-01T06:40:07;-2.50;99.90
56234;DHT22;42141;53.240;6.580;2023-03-01T06:42:37;-3.00;99.90
56234;DHT22;42141;53.240;6.580;2023-03-01T06:45:04;-3.00;99.90
56234;DHT22;42141;53.240;6.580;2023-03-01T06:47:30;-3.00;99.90
56234;DHT22;42141;53.240;6.580;2023-03-01T06:49:55;-2.90;99.90
56234;DHT22;42141;53.240;6.580;2023-03-01T06:52:21;-2.90;99.90
56234;DHT22;42141;53.240;6.580;2023-03-01T06:54:47;-2.90;99.90
56234;DHT22;42141;53.240;6.580;2023-03-01T06:57:13;-2.90;99.90
56234;DHT22;42141;53.240;6.580;2023-03-01T06:59:38;-2.80;99.90
56234;DHT22;42141;53.240;6.580;2023-03-01T07:02:04;-4.10;99.90
56234;DHT22;42141;53.240;6.580;2023-03-01T07:04:29;-2.20;99.90
56234;DHT22;42141;53.240;6.580;2023-03-01T07:06:56;-2.70;99.90
56234;DHT22;42141;53.240;6.580;2023-03-01T07:09:22;-1.50;99.90
56234;DHT22;42141;53.240;6.580;2023-03-01T07:11:49;-1.00;99.90
56234;DHT22;42141;53.240;6.580;2023-03-01T07:14:15;-2.30;99.90
56234;DHT22;42141;53.240;6.580;2023-03-01T07:16:41;-0.90;99.90
56234;DHT22;42141;53.240;6.580;2023-03-01T07:19:07;-2.50;99.90
56234;DHT22;42141;53.240;6.580;2023-03-01T07:21:32;-2.50;99.90
56234;DHT22;42141;53.240;6.580;2023-03-01T07:23:58;-2.40;99.90
56234;DHT22;42141;53.240;6.580;2023-03-01T07:26:24;-2.30;99.90
56234;DHT22;42141;53.240;6.580;2023-03-01T07:28:49;-2.20;99.90
56234;DHT22;42141;53.240;6.580;2023-03-01T07:31:15;-2.20;99.90
56234;DHT22;42141;53.240;6.580;2023-03-01T07:33:40;-2.10;99.90
56234;DHT22;42141;53.240;6.580;2023-03-01T07:36:07;-0.50;99.90
56234;DHT22;42141;53.240;6.580;2023-03-01T07:38:33;-2.00;99.90
56234;DHT22;42141;53.240;6.580;2023-03-01T07:41:03;-1.90;99.90
56234;DHT22;42141;53.240;6.580;2023-03-01T07:43:29;-1.80;99.90
56234;DHT22;42141;53.240;6.580;2023-03-01T07:45:58;-1.00;99.90
56234;DHT22;42141;53.240;6.580;2023-03-01T07:48:24;-1.70;99.90
56234;DHT22;42141;53.240;6.580;2023-03-01T07:50:50;0.00;99.90
56234;DHT22;42141;53.240;6.580;2023-03-01T07:53:16;-2.50;99.90
56234;DHT22;42141;53.240;6.580;2023-03-01T07:55:41;-1.40;99.90
56234;DHT22;42141;53.240;6.580;2023-03-01T07:58:07;-1.30;99.90
56234;DHT22;42141;53.240;6.580;2023-03-01T08:00:33;-1.20;99.90
56234;DHT22;42141;53.240;6.580;2023-03-01T08:02:59;-1.10;99.90
56234;DHT22;42141;53.240;6.580;2023-03-01T08:05:26;0.10;99.90
56234;DHT22;42141;53.240;6.580;2023-03-01T08:07:52;-0.90;99.90
56234;DHT22;42141;53.240;6.580;2023-03-01T08:10:19;-0.70;99.90
56234;DHT22;42141;53.240;6.580;2023-03-01T08:12:44;0.20;99.90
56234;DHT22;42141;53.240;6.580;2023-03-01T08:15:10;0.00;99.90
56234;DHT22;42141;53.240;6.580;2023-03-01T08:17:36;0.90;99.90
56234;DHT22;42141;53.240;6.580;2023-03-01T08:20:03;0.80;99.90
56234;DHT22;42141;53.240;6.580;2023-03-01T08:22:31;2.00;99.90
56234;DHT22;42141;53.240;6.580;2023-03-01T08:24:57;1.40;99.90
56234;DHT22;42141;53.240;6.580;2023-03-01T08:27:22;1.80;99.90
56234;DHT22;42141;53.240;6.580;2023-03-01T08:29:48;2.10;99.90
56234;DHT22;42141;53.240;6.580;2023-03-01T08:32:14;2.30;99.90
56234;DHT22;42141;53.240;6.580;2023-03-01T08:34:40;3.90;99.90
56234;DHT22;42141;53.240;6.580;2023-03-01T08:37:05;2.40;99.90
56234;DHT22;42141;53.240;6.580;2023-03-01T08:39:31;2.80;99.90
56234;DHT22;42141;53.240;6.580;2023-03-01T08:41:57;2.50;99.90
56234;DHT22;42141;53.240;6.580;2023-03-01T08:44:22;2.60;99.90
56234;DHT22;42141;53.240;6.580;2023-03-01T08:46:48;2.70;99.90
56234;DHT22;42141;53.240;6.580;2023-03-01T08:49:17;2.80;99.90
56234;DHT22;42141;53.240;6.580;2023-03-01T08:51:44;3.10;99.90
56234;DHT22;42141;53.240;6.580;2023-03-01T08:54:16;3.10;99.90
56234;DHT22;42141;53.240;6.580;2023-03-01T08:56:42;3.40;99.90
56234;DHT22;42141;53.240;6.580;2023-03-01T08:59:09;3.70;99.90
56234;DHT22;42141;53.240;6.580;2023-03-01T09:01:35;3.90;99.90
56234;DHT22;42141;53.240;6.580;2023-03-01T09:04:02;4.10;99.90
56234;DHT22;42141;53.240;6.580;2023-03-01T09:06:31;4.30;99.90
56234;DHT22;42141;53.240;6.580;2023-03-01T09:08:58;4.40;99.90
56234;DHT22;42141;53.240;6.580;2023-03-01T09:11:24;4.50;99.90
56234;DHT22;42141;53.240;6.580;2023-03-01T09:13:50;4.50;99.90
56234;DHT22;42141;53.240;6.580;2023-03-01T09:16:18;4.60;99.90
56234;DHT22;42141;53.240;6.580;2023-03-01T09:18:44;4.70;99.90
56234;DHT22;42141;53.240;6.580;2023-03-01T09:21:15;6.10;99.90
56234;DHT22;42141;53.240;6.580;2023-03-01T09:23:43;5.20;99.90
56234;DHT22;42141;53.240;6.580;2023-03-01T09:26:11;4.90;99.90
56234;DHT22;42141;53.240;6.580;2023-03-01T09:28:38;5.10;99.90
56234;DHT22;42141;53.240;6.580;2023-03-01T09:31:04;5.10;99.90
56234;DHT22;42141;53.240;6.580;2023-03-01T09:33:31;5.20;99.90
56234;DHT22;42141;53.240;6.580;2023-03-01T09:36:13;5.30;99.90
56234;DHT22;42141;53.240;6.580;2023-03-01T09:38:39;5.40;99.90
56234;DHT22;42141;53.240;6.580;2023-03-01T09:46:14;5.70;99.90
56234;DHT22;42141;53.240;6.580;2023-03-01T09:51:31;5.90;99.90
56234;DHT22;42141;53.240;6.580;2023-03-01T09:53:57;6.00;99.90
56234;DHT22;42141;53.240;6.580;2023-03-01T09:59:30;6.30;99.90
56234;DHT22;42141;53.240;6.580;2023-03-01T10:02:27;6.40;99.90
56234;DHT22;42141;53.240;6.580;2023-03-01T10:05:04;6.40;99.90
56234;DHT22;42141;53.240;6.580;2023-03-01T10:10:28;6.70;99.90
56234;DHT22;42141;53.240;6.580;2023-03-01T10:13:09;6.80;99.90
56234;DHT22;42141;53.240;6.580;2023-03-01T10:15:44;6.90;99.90
56234;DHT22;42141;53.240;6.580;2023-03-01T10:18:19;7.00;99.90
56234;DHT22;42141;53.240;6.580;2023-03-01T10:20:52;8.30;99.90
56234;DHT22;42141;53.240;6.580;2023-03-01T10:23:18;7.50;99.90
56234;DHT22;42141;53.240;6.580;2023-03-01T10:28:25;7.40;99.90
56234;DHT22;42141;53.240;6.580;2023-03-01T10:30:51;7.50;99.90
56234;DHT22;42141;53.240;6.580;2023-03-01T10:33:55;7.60;99.90
56234;DHT22;42141;53.240;6.580;2023-03-01T10:36:18;8.20;99.90
56234;DHT22;42141;53.240;6.580;2023-03-01T10:39:12;7.80;99.90
56234;DHT22;42141;53.240;6.580;2023-03-01T10:42:13;8.00;99.90
56234;DHT22;42141;53.240;6.580;2023-03-01T10:44:48;8.00;99.90
56234;DHT22;42141;53.240;6.580;2023-03-01T10:50:02;8.10;99.90
56234;DHT22;42141;53.240;6.580;2023-03-01T10:52:37;8.10;99.90
56234;DHT22;42141;53.240;6.580;2023-03-01T10:57:39;8.30;99.90
56234;DHT22;42141;53.240;6.580;2023-03-01T11:02:48;8.50;99.90
56234;DHT22;42141;53.240;6.580;2023-03-01T11:05:23;8.50;99.90
56234;DHT22;42141;53.240;6.580;2023-03-01T11:07:57;8.60;99.90
56234;DHT22;42141;53.240;6.580;2023-03-01T11:12:51;8.70;99.90
56234;DHT22;42141;53.240;6.580;2023-03-01T11:15:26;8.80;99.90
56234;DHT22;42141;53.240;6.580;2023-03-01T11:17:54;8.80;99.90
56234;DHT22;42141;53.240;6.580;2023-03-01T11:20:32;8.90;99.90
56234;DHT22;42141;53.240;6.580;2023-03-01T11:23:03;8.90;99.90
56234;DHT22;42141;53.240;6.580;2023-03-01T11:25:37;8.90;99.90
56234;DHT22;42141;53.240;6.580;2023-03-01T11:28:05;9.00;99.90
56234;DHT22;42141;53.240;6.580;2023-03-01T11:30:37;9.40;99.90
56234;DHT22;42141;53.240;6.580;2023-03-01T11:35:35;10.00;99.90
56234;DHT22;42141;53.240;6.580;2023-03-01T11:40:57;9.40;99.90
56234;DHT22;42141;53.240;6.580;2023-03-01T11:43:55;9.10;99.90
56234;DHT22;42141;53.240;6.580;2023-03-01T11:52:03;9.30;99.90
56234;DHT22;42141;53.240;6.580;2023-03-01T12:08:30;9.60;99.90
56234;DHT22;42141;53.240;6.580;2023-03-01T12:14:01;9.60;99.90
56234;DHT22;42141;53.240;6.580;2023-03-01T12:17:03;9.70;99.90
56234;DHT22;42141;53.240;6.580;2023-03-01T12:22:42;9.70;99.90
56234;DHT22;42141;53.240;6.580;2023-03-01T12:33:31;9.90;99.90
56234;DHT22;42141;53.240;6.580;2023-03-01T12:36:11;9.90;99.90
56234;DHT22;42141;53.240;6.580;2023-03-01T12:47:37;10.20;99.90
56234;DHT22;42141;53.240;6.580;2023-03-01T12:50:21;10.30;99.90
56234;DHT22;42141;53.240;6.580;2023-03-01T12:52:57;11.20;99.90
56234;DHT22;42141;53.240;6.580;2023-03-01T12:58:20;10.30;99.90
56234;DHT22;42141;53.240;6.580;2023-03-01T13:01:13;10.30;99.90
56234;DHT22;42141;53.240;6.580;2023-03-01T13:06:42;10.40;99.90
56234;DHT22;42141;53.240;6.580;2023-03-01T13:12:01;10.30;99.90
56234;DHT22;42141;53.240;6.580;2023-03-01T13:14:36;10.30;99.90
56234;DHT22;42141;53.240;6.580;2023-03-01T13:17:02;10.40;99.90
56234;DHT22;42141;53.240;6.580;2023-03-01T13:19:28;10.40;99.90
56234;DHT22;42141;53.240;6.580;2023-03-01T13:21:55;10.50;99.90
56234;DHT22;42141;53.240;6.580;2023-03-01T13:24:40;10.60;99.90
56234;DHT22;42141;53.240;6.580;2023-03-01T13:29:49;10.70;99.90
56234;DHT22;42141;53.240;6.580;2023-03-01T13:32:37;10.70;99.90
56234;DHT22;42141;53.240;6.580;2023-03-01T13:37:37;10.70;99.90
56234;DHT22;42141;53.240;6.580;2023-03-01T13:42:50;10.70;99.90
56234;DHT22;42141;53.240;6.580;2023-03-01T13:45:40;10.70;99.90
56234;DHT22;42141;53.240;6.580;2023-03-01T13:48:16;10.60;99.90
56234;DHT22;42141;53.240;6.580;2023-03-01T13:50:51;10.70;99.90
56234;DHT22;42141;53.240;6.580;2023-03-01T13:53:23;10.70;99.90
56234;DHT22;42141;53.240;6.580;2023-03-01T13:55:58;10.70;99.90
56234;DHT22;42141;53.240;6.580;2023-03-01T13:58:29;10.80;99.90
56234;DHT22;42141;53.240;6.580;2023-03-01T14:00:57;10.80;99.90
56234;DHT22;42141;53.240;6.580;2023-03-01T14:03:24;10.30;99.90
56234;DHT22;42141;53.240;6.580;2023-03-01T14:06:02;10.60;99.90
56234;DHT22;42141;53.240;6.580;2023-03-01T14:08:30;10.50;99.90
56234;DHT22;42141;53.240;6.580;2023-03-01T14:11:13;10.50;99.90
56234;DHT22;42141;53.240;6.580;2023-03-01T14:14:36;10.40;99.90
56234;DHT22;42141;53.240;6.580;2023-03-01T14:19:27;10.30;99.90
56234;DHT22;42141;53.240;6.580;2023-03-01T14:22:23;10.40;99.90
56234;DHT22;42141;53.240;6.580;2023-03-01T14:24:52;10.40;99.90
56234;DHT22;42141;53.240;6.580;2023-03-01T14:27:19;10.50;99.90
56234;DHT22;42141;53.240;6.580;2023-03-01T14:29:57;10.50;99.90
56234;DHT22;42141;53.240;6.580;2023-03-01T14:34:52;10.40;99.90
56234;DHT22;42141;53.240;6.580;2023-03-01T14:39:46;10.40;99.90
56234;DHT22;42141;53.240;6.580;2023-03-01T14:42:14;10.50;99.90
56234;DHT22;42141;53.240;6.580;2023-03-01T14:44:43;10.50;99.90
56234;DHT22;42141;53.240;6.580;2023-03-01T14:47:20;10.50;99.90
56234;DHT22;42141;53.240;6.580;2023-03-01T14:49:52;10.60;99.90
56234;DHT22;42141;53.240;6.580;2023-03-01T14:52:29;10.60;99.90
56234;DHT22;42141;53.240;6.580;2023-03-01T14:54:57;10.60;99.90
56234;DHT22;42141;53.240;6.580;2023-03-01T14:57:24;10.60;99.90
56234;DHT22;42141;53.240;6.580;2023-03-01T14:59:57;10.50;99.90
56234;DHT22;42141;53.240;6.580;2023-03-01T15:02:25;10.50;99.90
56234;DHT22;42141;53.240;6.580;2023-03-01T15:04:55;10.50;99.90
56234;DHT22;42141;53.240;6.580;2023-03-01T15:07:34;10.50;99.90
56234;DHT22;42141;53.240;6.580;2023-03-01T15:10:02;10.50;99.90
56234;DHT22;42141;53.240;6.580;2023-03-01T15:14:55;10.30;99.90
56234;DHT22;42141;53.240;6.580;2023-03-01T15:17:36;10.30;99.90
56234;DHT22;42141;53.240;6.580;2023-03-01T15:20:06;10.30;99.90
56234;DHT22;42141;53.240;6.580;2023-03-01T15:22:32;10.20;99.90
56234;DHT22;42141;53.240;6.580;2023-03-01T15:24:58;10.20;99.90
56234;DHT22;42141;53.240;6.580;2023-03-01T15:27:25;10.10;99.90
56234;DHT22;42141;53.240;6.580;2023-03-01T15:30:02;10.10;99.90
56234;DHT22;42141;53.240;6.580;2023-03-01T15:32:35;9.90;99.90
56234;DHT22;42141;53.240;6.580;2023-03-01T15:38:25;9.60;99.90
56234;DHT22;42141;53.240;6.580;2023-03-01T15:40:51;9.40;99.90
56234;DHT22;42141;53.240;6.580;2023-03-01T15:43:40;9.20;99.90
56234;DHT22;42141;53.240;6.580;2023-03-01T15:46:16;9.10;99.90
56234;DHT22;42141;53.240;6.580;2023-03-01T15:48:56;8.90;99.90
56234;DHT22;42141;53.240;6.580;2023-03-01T15:51:28;8.80;99.90
56234;DHT22;42141;53.240;6.580;2023-03-01T15:53:55;8.60;99.90
56234;DHT22;42141;53.240;6.580;2023-03-01T15:56:21;8.40;99.90
56234;DHT22;42141;53.240;6.580;2023-03-01T15:58:47;8.30;99.90
56234;DHT22;42141;53.240;6.580;2023-03-01T16:01:15;8.20;99.90
56234;DHT22;42141;53.240;6.580;2023-03-01T16:03:42;8.00;99.90
56234;DHT22;42141;53.240;6.580;2023-03-01T16:06:11;6.90;99.90
56234;DHT22;42141;53.240;6.580;2023-03-01T16:08:38;7.90;99.90
56234;DHT22;42141;53.240;6.580;2023-03-01T16:11:18;7.80;99.90
56234;DHT22;42141;53.240;6.580;2023-03-01T16:13:44;9.00;99.90
56234;DHT22;42141;53.240;6.580;2023-03-01T16:16:11;7.60;99.90
56234;DHT22;42141;53.240;6.580;2023-03-01T16:18:40;7.90;99.90
56234;DHT22;42141;53.240;6.580;2023-03-01T16:21:06;7.50;99.90
56234;DHT22;42141;53.240;6.580;2023-03-01T16:23:32;8.50;99.90
56234;DHT22;42141;53.240;6.580;2023-03-01T16:26:01;7.40;99.90
56234;DHT22;42141;53.240;6.580;2023-03-01T16:28:27;8.30;99.90
56234;DHT22;42141;53.240;6.580;2023-03-01T16:30:52;7.20;99.90
56234;DHT22;42141;53.240;6.580;2023-03-01T16:33:18;7.10;99.90
56234;DHT22;42141;53.240;6.580;2023-03-01T16:35:47;7.10;99.90
56234;DHT22;42141;53.240;6.580;2023-03-01T16:38:13;8.50;99.90
56234;DHT22;42141;53.240;6.580;2023-03-01T16:40:38;6.90;99.90
56234;DHT22;42141;53.240;6.580;2023-03-01T16:43:04;6.80;99.90
56234;DHT22;42141;53.240;6.580;2023-03-01T16:45:35;6.80;99.90
56234;DHT22;42141;53.240;6.580;2023-03-01T16:48:02;6.70;99.90
56234;DHT22;42141;53.240;6.580;2023-03-01T16:50:28;6.60;99.90
56234;DHT22;42141;53.240;6.580;2023-03-01T16:52:54;6.60;99.90
56234;DHT22;42141;53.240;6.580;2023-03-01T16:55:19;6.50;99.90
56234;DHT22;42141;53.240;6.580;2023-03-01T16:57:45;6.40;99.90
56234;DHT22;42141;53.240;6.580;2023-03-01T17:00:12;6.30;99.90
56234;DHT22;42141;53.240;6.580;2023-03-01T17:02:38;6.30;99.90
56234;DHT22;42141;53.240;6.580;2023-03-01T17:05:05;6.20;99.90
56234;DHT22;42141;53.240;6.580;2023-03-01T17:07:31;6.20;99.90
56234;DHT22;42141;53.240;6.580;2023-03-01T17:10:01;6.10;99.90
56234;DHT22;42141;53.240;6.580;2023-03-01T17:12:27;6.20;99.90
56234;DHT22;42141;53.240;6.580;2023-03-01T17:14:53;6.00;99.90
56234;DHT22;42141;53.240;6.580;2023-03-01T17:17:19;5.80;99.90
56234;DHT22;42141;53.240;6.580;2023-03-01T17:19:45;6.60;99.90
56234;DHT22;42141;53.240;6.580;2023-03-01T17:22:12;5.90;99.90
56234;DHT22;42141;53.240;6.580;2023-03-01T17:24:42;5.80;99.90
56234;DHT22;42141;53.240;6.580;2023-03-01T17:27:09;5.70;99.90
56234;DHT22;42141;53.240;6.580;2023-03-01T17:29:35;6.80;99.90
56234;DHT22;42141;53.240;6.580;2023-03-01T17:32:03;5.50;99.90
56234;DHT22;42141;53.240;6.580;2023-03-01T17:34:30;5.50;99.90
56234;DHT22;42141;53.240;6.580;2023-03-01T17:36:56;5.40;99.90
56234;DHT22;42141;53.240;6.580;2023-03-01T17:39:22;5.30;99.90
56234;DHT22;42141;53.240;6.580;2023-03-01T17:41:56;5.20;99.90